Time;durP1;ratioP1;P1;durP2;ratioP2;P2;SDS_P1;SDS_P2;PMS_P1;PMS_P2;Temp;Humidity;BMP_temperature;BMP_pressure;BME280_temperature;BME280_humidity;BME280_pressure;Samples;Min_cycle;Max_cycle;Signal;HPM_P1;HPM_P2
2023/10/20 00:02:18;;;;;;;16.43;9.00;;;;;;;13.38;100.00;93666.44;5096841;28;20676;-68
2023/10/20 00:04:45;;;;;;;17.67;9.03;;;;;;;13.60;100.00;93668.69;5097601;28;20319;-68
2023/10/20 00:07:11;;;;;;;18.00;8.17;;;;;;;13.69;100.00;93667.13;5097619;28;20256;-68
2023/10/20 00:09:39;;;;;;;14.93;7.80;;;;;;;13.81;100.00;93656.34;5096606;28;20984;-68
2023/10/20 00:12:06;;;;;;;16.23;8.43;;;;;;;13.64;100.00;93643.28;5097116;28;20209;-68
2023/10/20 00:14:33;;;;;;;15.48;8.43;;;;;;;13.51;100.00;93635.81;5097512;28;20219;-68
2023/10/20 00:16:59;;;;;;;14.20;7.83;;;;;;;13.38;100.00;93632.03;5096979;28;20673;-68
2023/10/20 00:19:25;;;;;;;16.83;8.63;;;;;;;13.17;100.00;93643.56;5096820;28;20199;-68
2023/10/20 00:21:52;;;;;;;18.43;8.27;;;;;;;13.53;100.00;93643.50;5097113;28;20203;-68
2023/10/20 00:24:19;;;;;;;15.43;8.47;;;;;;;13.53;100.00;93632.91;5097471;28;20223;-68
2023/10/20 00:26:47;;;;;;;17.97;9.43;;;;;;;13.66;100.00;93637.78;5096295;28;20673;-68
2023/10/20 00:29:13;;;;;;;18.20;8.83;;;;;;;13.49;100.00;93630.00;5096322;28;20681;-68
2023/10/20 00:31:41;;;;;;;19.80;9.87;;;;;;;13.59;100.00;93614.19;5096883;28;20242;-68
2023/10/20 00:34:07;;;;;;;18.27;9.10;;;;;;;13.56;100.00;93619.19;5096939;28;20298;-68
2023/10/20 00:36:34;;;;;;;21.23;10.00;;;;;;;13.60;100.00;93621.03;5097000;28;20201;-68
2023/10/20 00:39:00;;;;;;;20.43;10.10;;;;;;;13.69;100.00;93613.44;5096730;28;20675;-68
2023/10/20 00:41:27;;;;;;;19.30;8.60;;;;;;;13.68;100.00;93603.88;5096344;28;20211;-68
2023/10/20 00:43:55;;;;;;;20.20;9.47;;;;;;;13.76;100.00;93606.84;5097187;28;20223;-68
2023/10/20 00:46:21;;;;;;;22.80;10.10;;;;;;;13.64;100.00;93603.59;5096595;28;20223;-68
2023/10/20 00:48:48;;;;;;;19.80;9.00;;;;;;;13.58;100.00;93609.94;5096479;28;20199;-68
2023/10/20 00:51:15;;;;;;;21.33;9.53;;;;;;;13.62;100.00;93611.03;5096063;28;20202;-68
2023/10/20 00:53:42;;;;;;;22.13;10.00;;;;;;;13.56;100.00;93598.81;5096472;28;20966;-68
2023/10/20 00:56:09;;;;;;;21.40;9.50;;;;;;;13.67;100.00;93600.47;5097001;28;20205;-68
2023/10/20 00:58:37;;;;;;;20.90;9.43;;;;;;;13.69;100.00;93598.34;5096434;28;20198;-68
2023/10/20 01:01:05;;;;;;;21.80;9.70;;;;;;;13.75;100.00;93581.44;5095629;28;20207;-68
2023/10/20 01:03:32;;;;;;;25.20;9.43;;;;;;;13.51;100.00;93574.97;5096237;28;20227;-68
2023/10/20 01:05:59;;;;;;;22.07;9.03;;;;;;;13.63;100.00;93567.63;5096382;28;20696;-68
2023/10/20 01:08:26;;;;;;;17.57;8.53;;;;;;;13.55;100.00;93564.69;5096292;28;20206;-69
2023/10/20 01:10:53;;;;;;;23.70;9.17;;;;;;;13.74;100.00;93560.53;5095333;28;20203;-69
2023/10/20 01:13:21;;;;;;;22.43;10.97;;;;;;;13.65;100.00;93560.22;5096320;28;21030;-69
2023/10/20 01:15:48;;;;;;;20.23;10.17;;;;;;;13.71;100.00;93553.09;5096316;28;20191;-68
2023/10/20 01:18:17;;;;;;;16.17;8.23;;;;;;;13.90;100.00;93541.78;5096048;28;20205;-68
2023/10/20 01:20:44;;;;;;;17.47;9.97;;;;;;;13.55;100.00;93538.22;5095921;28;20195;-68
2023/10/20 01:23:11;;;;;;;21.17;9.70;;;;;;;13.69;100.00;93540.13;5096625;28;20221;-68
2023/10/20 01:25:38;;;;;;;20.80;9.80;;;;;;;13.70;100.00;93531.13;5096416;28;20238;-68
2023/10/20 01:28:05;;;;;;;20.13;9.27;;;;;;;13.67;100.00;93536.13;5096306;28;20199;-68
2023/10/20 01:30:32;;;;;;;20.40;9.57;;;;;;;13.60;100.00;93530.31;5095687;28;20199;-68
2023/10/20 01:32:58;;;;;;;23.13;10.90;;;;;;;13.55;100.00;93532.94;5095802;28;20770;-68
2023/10/20 01:35:25;;;;;;;28.17;10.20;;;;;;;13.50;100.00;93538.22;5096233;28;20210;-68
2023/10/20 01:37:53;;;;;;;21.20;9.57;;;;;;;13.59;100.00;93529.53;5096290;28;20203;-68
2023/10/20 01:40:19;;;;;;;20.17;9.20;;;;;;;13.44;100.00;93542.69;5096044;28;20204;-68
2023/10/20 01:42:47;;;;;;;23.67;9.47;;;;;;;13.70;100.00;93541.72;5095633;28;20203;-68
2023/10/20 01:45:14;;;;;;;22.13;8.77;;;;;;;13.46;100.00;93545.84;5096265;28;20704;-68
2023/10/20 01:47:40;;;;;;;22.60;9.70;;;;;;;13.53;100.00;93538.50;5096183;28;20292;-68
2023/10/20 01:50:07;;;;;;;21.93;10.07;;;;;;;13.59;100.00;93496.97;5095342;28;20458;-68
2023/10/20 01:52:34;;;;;;;20.43;9.57;;;;;;;13.61;100.00;93479.78;5096291;28;20199;-69
2023/10/20 01:55:01;;;;;;;24.55;10.77;;;;;;;13.44;100.00;93473.94;5097152;28;20220;-68
2023/10/20 01:57:27;;;;;;;22.00;9.43;;;;;;;13.52;100.00;93464.69;5095541;28;20206;-68
2023/10/20 01:59:55;;;;;;;25.10;10.43;;;;;;;13.68;100.00;93453.88;5095291;28;20673;-68
2023/10/20 02:02:22;;;;;;;23.50;9.90;;;;;;;13.49;100.00;93433.44;5095950;28;20203;-68
2023/10/20 02:04:48;;;;;;;21.30;9.80;;;;;;;13.48;100.00;93427.38;5096006;28;20226;-68
2023/10/20 02:07:15;;;;;;;25.55;11.13;;;;;;;13.35;100.00;93411.19;5095553;28;20207;-68
2023/10/20 02:09:41;;;;;;;24.93;10.43;;;;;;;13.47;100.00;93398.53;5097800;28;20203;-68
2023/10/20 02:12:10;;;;;;;22.63;9.53;;;;;;;13.45;100.00;93385.59;5099341;28;20210;-68
2023/10/20 02:14:36;;;;;;;23.47;10.53;;;;;;;13.23;100.00;93373.63;5099226;28;20246;-69
2023/10/20 02:17:04;;;;;;;25.00;11.40;;;;;;;13.34;100.00;93354.09;5099520;28;20199;-68
2023/10/20 02:19:31;;;;;;;32.97;11.83;;;;;;;13.16;100.00;93338.75;5098645;28;20675;-68
2023/10/20 02:21:59;;;;;;;27.17;11.30;;;;;;;13.14;100.00;93350.63;5099301;28;20195;-68
2023/10/20 02:24:26;;;;;;;24.83;11.23;;;;;;;13.15;100.00;93362.78;5099123;28;20310;-68
2023/10/20 02:26:52;;;;;;;28.00;12.17;;;;;;;13.16;100.00;93359.06;5099422;28;20231;-68
2023/10/20 02:29:19;;;;;;;30.40;13.17;;;;;;;13.34;100.00;93358.56;5098680;28;20760;-68
2023/10/20 02:31:45;;;;;;;26.90;11.80;;;;;;;13.36;100.00;93351.97;5098239;28;20203;-68
2023/10/20 02:34:13;;;;;;;27.10;11.50;;;;;;;13.45;100.00;93348.56;5099456;28;20215;-68
2023/10/20 02:36:39;;;;;;;28.93;11.30;;;;;;;13.15;100.00;93346.91;5099095;28;20573;-68
2023/10/20 02:39:06;;;;;;;29.43;12.60;;;;;;;13.20;100.00;93345.09;5098816;28;20203;-68
2023/10/20 02:41:33;;;;;;;30.33;12.03;;;;;;;13.23;100.00;93355.13;5098854;28;20226;-69
2023/10/20 02:43:59;;;;;;;25.23;11.07;;;;;;;13.36;100.00;93362.56;5098840;28;21148;-68
2023/10/20 02:46:26;;;;;;;32.70;12.13;;;;;;;13.29;100.00;93358.56;5099232;28;20241;-68
2023/10/20 02:48:52;;;;;;;24.57;11.93;;;;;;;13.19;100.00;93356.72;5098533;28;21055;-68
2023/10/20 02:51:20;;;;;;;26.70;11.87;;;;;;;13.14;100.00;93366.50;5098221;28;20203;-68
2023/10/20 02:53:47;;;;;;;27.60;11.83;;;;;;;13.22;100.00;93355.41;5098767;28;20225;-68
2023/10/20 02:56:15;;;;;;;30.00;12.67;;;;;;;13.32;100.00;93352.78;5099019;28;20286;-68
2023/10/20 02:58:44;;;;;;;30.57;12.30;;;;;;;13.36;100.00;93340.63;5096248;28;20199;-68
2023/10/20 03:01:11;;;;;;;26.50;11.70;;;;;;;13.22;100.00;93332.38;5098197;28;20217;-69
2023/10/20 03:03:37;;;;;;;21.70;10.67;;;;;;;13.24;100.00;93313.59;5098540;28;20597;-68
2023/10/20 03:06:06;;;;;;;29.53;11.43;;;;;;;13.37;100.00;93305.97;5098632;28;20223;-68
2023/10/20 03:08:36;;;;;;;30.93;12.40;;;;;;;13.22;100.00;93295.38;5099079;28;20195;-68
2023/10/20 03:11:04;;;;;;;28.20;11.37;;;;;;;13.21;100.00;93277.13;5097748;28;20195;-68
2023/10/20 03:13:30;;;;;;;21.87;11.23;;;;;;;12.99;100.00;93279.22;5097958;28;20223;-68
2023/10/20 03:15:57;;;;;;;24.17;11.07;;;;;;;13.05;100.00;93284.25;5098151;28;20207;-68
2023/10/20 03:18:23;;;;;;;30.00;12.97;;;;;;;13.08;100.00;93277.66;5098011;28;20210;-68
2023/10/20 03:20:50;;;;;;;28.93;12.47;;;;;;;13.16;100.00;93266.56;5097210;28;20571;-68
2023/10/20 03:23:18;;;;;;;29.90;13.27;;;;;;;13.12;100.00;93268.94;5098709;28;20314;-68
2023/10/20 03:25:46;;;;;;;26.07;11.67;;;;;;;13.06;100.00;93262.06;5098173;28;20608;-69
2023/10/20 03:28:13;;;;;;;28.13;12.33;;;;;;;13.06;100.00;93253.31;5097893;28;20356;-68
2023/10/20 03:30:40;;;;;;;26.13;12.20;;;;;;;12.88;100.00;93256.47;5097468;28;20195;-68
2023/10/20 03:33:07;;;;;;;27.70;12.77;;;;;;;12.91;100.00;93256.75;5098107;28;20211;-68
2023/10/20 03:35:33;;;;;;;28.23;12.37;;;;;;;12.64;100.00;93263.28;5097996;28;20198;-68
2023/10/20 03:38:00;;;;;;;28.63;12.93;;;;;;;12.81;100.00;93248.78;5097901;28;20209;-68
2023/10/20 03:40:30;;;;;;;29.70;12.63;;;;;;;12.93;100.00;93259.13;5097607;28;20199;-68
2023/10/20 03:42:58;;;;;;;28.10;12.13;;;;;;;12.99;100.00;93231.66;5097790;28;20202;-68
2023/10/20 03:45:25;;;;;;;32.17;13.27;;;;;;;12.84;100.00;93232.41;5097563;28;20211;-69
2023/10/20 03:47:53;;;;;;;33.70;13.20;;;;;;;12.90;100.00;93238.53;5097755;28;20922;-68
2023/10/20 03:50:20;;;;;;;30.20;12.97;;;;;;;12.86;100.00;93232.19;5097071;28;20203;-68
2023/10/20 03:52:48;;;;;;;28.43;12.80;;;;;;;12.85;100.00;93233.19;5097391;28;20199;-68
2023/10/20 03:55:15;;;;;;;30.47;13.27;;;;;;;12.86;100.00;93232.97;5097302;28;20210;-68
2023/10/20 03:57:43;;;;;;;28.67;13.00;;;;;;;12.84;100.00;93226.31;5097201;28;20285;-68
2023/10/20 04:00:17;;;;;;;26.00;12.10;;;;;;;12.91;100.00;93219.75;5097392;28;20214;-68
2023/10/20 04:02:46;;;;;;;31.60;13.00;;;;;;;12.78;100.00;93208.91;5097174;28;20217;-68
2023/10/20 04:05:13;;;;;;;28.40;12.43;;;;;;;12.73;100.00;93193.03;5097353;28;20203;-68
2023/10/20 04:07:39;;;;;;;33.17;13.83;;;;;;;12.70;100.00;93164.50;5097253;28;20218;-68
2023/10/20 04:10:07;;;;;;;29.40;12.27;;;;;;;12.65;100.00;93148.63;5097335;28;20203;-68
2023/10/20 04:12:33;;;;;;;32.90;13.77;;;;;;;12.51;100.00;93149.41;5096485;28;20210;-68
2023/10/20 04:15:00;;;;;;;29.67;13.03;;;;;;;12.52;100.00;93159.72;5097149;28;20233;-68
2023/10/20 04:17:28;;;;;;;35.33;14.40;;;;;;;12.83;100.00;93164.78;5097270;28;20205;-68
2023/10/20 04:19:55;;;;;;;34.43;14.40;;;;;;;12.73;100.00;93158.69;5096737;28;20231;-68
2023/10/20 04:22:23;;;;;;;30.10;13.07;;;;;;;12.63;100.00;93163.97;5096918;28;21246;-68
2023/10/20 04:24:49;;;;;;;28.27;12.80;;;;;;;12.66;100.00;93146.81;5096861;28;20222;-68
2023/10/20 04:27:21;;;;;;;29.63;14.07;;;;;;;12.46;100.00;93146.78;5097629;28;20221;-68
2023/10/20 04:41:50;;;;;;;29.53;13.87;;;;;;;12.50;100.00;93140.72;5096679;28;20243;-68
2023/10/20 04:43:38;;;;;;;35.73;13.80;;;;;;;12.39;100.00;93115.34;5096609;28;20279;-68
2023/10/20 04:49:28;;;;;;;32.63;14.83;;;;;;;12.54;100.00;93106.66;5096707;28;21053;-68
2023/10/20 04:52:05;;;;;;;38.53;14.60;;;;;;;12.34;100.00;93104.78;5096506;28;20210;-68
2023/10/20 04:54:44;;;;;;;31.93;14.87;;;;;;;12.33;100.00;93095.28;5096532;28;20343;-68
2023/10/20 05:00:30;;;;;;;31.37;15.40;;;;;;;12.30;100.00;93098.44;5096125;28;20333;-68
2023/10/20 05:02:56;;;;;;;30.80;13.50;;;;;;;12.31;100.00;93076.28;5095560;28;20239;-68
2023/10/20 05:05:33;;;;;;;32.07;14.03;;;;;;;12.47;100.00;93069.16;5096650;28;21073;-68
2023/10/20 05:08:04;;;;;;;31.90;13.80;;;;;;;12.47;100.00;93072.56;5096186;28;20607;-68
2023/10/20 05:10:31;;;;;;;37.87;15.73;;;;;;;12.19;100.00;93073.09;5095644;28;20306;-68
2023/10/20 05:12:58;;;;;;;30.10;13.70;;;;;;;12.13;100.00;93062.81;5095825;28;20322;-68
2023/10/20 05:15:24;;;;;;;41.23;16.07;;;;;;;12.02;100.00;93044.59;5096179;28;20199;-68
2023/10/20 05:17:52;;;;;;;38.20;14.33;;;;;;;12.18;100.00;93039.84;5095332;28;20203;-68
2023/10/20 05:20:20;;;;;;;38.40;16.23;;;;;;;12.17;100.00;93037.47;5095636;28;21001;-67
2023/10/20 05:22:49;;;;;;;37.83;16.50;;;;;;;12.50;100.00;93031.63;5096308;28;20928;-68
2023/10/20 05:25:15;;;;;;;33.50;14.57;;;;;;;12.29;100.00;93015.03;5096118;28;20657;-68
2023/10/20 05:27:42;;;;;;;37.13;15.00;;;;;;;12.27;100.00;93019.78;5095773;28;20210;-67
2023/10/20 05:30:10;;;;;;;36.73;15.73;;;;;;;12.22;100.00;93003.16;5096521;28;20199;-68
2023/10/20 05:32:37;;;;;;;37.13;15.30;;;;;;;11.90;100.00;92999.19;5096019;28;20203;-68
2023/10/20 05:35:07;;;;;;;34.57;15.47;;;;;;;12.06;100.00;92991.00;5096036;28;20223;-68
2023/10/20 05:37:34;;;;;;;38.23;16.87;;;;;;;11.90;100.00;92994.72;5096401;28;20195;-68
2023/10/20 05:40:02;;;;;;;35.43;15.27;;;;;;;12.04;100.00;92984.41;5095604;28;20206;-68
2023/10/20 05:42:29;;;;;;;34.67;14.83;;;;;;;11.85;100.00;92985.97;5095629;28;20210;-68
2023/10/20 05:45:03;;;;;;;33.73;14.63;;;;;;;11.84;100.00;92965.97;5098973;28;20227;-68
2023/10/20 05:47:29;;;;;;;37.90;15.53;;;;;;;11.85;100.00;92965.69;5099680;28;20700;-68
2023/10/20 05:50:00;;;;;;;36.00;15.50;;;;;;;11.96;100.00;92955.94;5099627;28;20299;-68
2023/10/20 05:52:27;;;;;;;36.07;15.43;;;;;;;11.85;100.00;92959.59;5099983;28;20592;-69
2023/10/20 05:54:54;;;;;;;39.33;16.47;;;;;;;11.88;100.00;92953.81;5099858;28;20222;-69
2023/10/20 05:57:23;;;;;;;41.23;16.37;;;;;;;11.95;100.00;92949.06;5099590;28;20208;-69
2023/10/20 05:59:49;;;;;;;36.27;15.73;;;;;;;11.75;100.00;92943.78;5099525;28;21043;-69
2023/10/20 06:02:16;;;;;;;41.20;15.90;;;;;;;11.75;100.00;92941.94;5099560;28;20211;-69
2023/10/20 06:04:42;;;;;;;37.07;15.07;;;;;;;11.75;100.00;92917.41;5099268;28;20219;-69
2023/10/20 06:07:09;;;;;;;42.47;16.60;;;;;;;11.76;100.00;92897.88;5099365;28;20717;-68
2023/10/20 06:09:35;;;;;;;38.87;15.73;;;;;;;11.76;100.00;92888.13;5099529;28;20199;-69
2023/10/20 06:12:03;;;;;;;42.23;16.87;;;;;;;11.69;100.00;92873.63;5098909;28;20695;-69
2023/10/20 06:14:31;;;;;;;43.17;17.13;;;;;;;11.86;100.00;92860.97;5099317;28;20795;-68
2023/10/20 06:16:58;;;;;;;37.40;15.10;;;;;;;11.90;100.00;92867.28;5099442;28;20369;-69
2023/10/20 06:19:24;;;;;;;40.60;16.83;;;;;;;11.89;100.00;92865.69;5099205;28;20199;-68
2023/10/20 06:21:51;;;;;;;37.93;16.93;;;;;;;12.08;100.00;92858.81;5098879;28;20254;-69
2023/10/20 06:24:18;;;;;;;40.73;14.60;;;;;;;12.06;100.00;92856.44;5099697;28;20207;-69
2023/10/20 06:26:45;;;;;;;37.93;15.37;;;;;;;12.00;100.00;92833.75;5099107;28;20219;-69
2023/10/20 06:29:26;;;;;;;40.97;16.43;;;;;;;12.03;100.00;92864.09;5098683;28;20210;-69
2023/10/20 06:31:57;;;;;;;34.03;15.37;;;;;;;12.15;100.00;92809.97;5098685;28;20259;-70
2023/10/20 06:34:24;;;;;;;29.97;13.97;;;;;;;12.01;100.00;92797.63;5099623;28;20218;-69
2023/10/20 06:36:59;;;;;;;36.40;16.07;;;;;;;12.02;100.00;92844.06;5098810;28;20207;-70
2023/10/20 06:39:26;;;;;;;37.23;16.47;;;;;;;12.01;100.00;92821.38;5098345;28;20573;-69
2023/10/20 06:41:52;;;;;;;36.37;15.53;;;;;;;12.18;100.00;92809.44;5099171;28;20221;-69
2023/10/20 06:44:19;;;;;;;37.60;16.00;;;;;;;12.13;100.00;92796.28;5098988;28;20219;-69
2023/10/20 06:46:46;;;;;;;39.17;16.03;;;;;;;12.28;100.00;92826.03;5098528;28;20263;-69
2023/10/20 06:49:18;;;;;;;34.73;15.27;;;;;;;12.44;100.00;92819.63;5098421;28;20203;-69
2023/10/20 06:51:44;;;;;;;40.27;15.37;;;;;;;12.27;100.00;92784.88;5098592;28;20290;-69
2023/10/20 06:54:11;;;;;;;33.13;14.37;;;;;;;12.23;100.00;92804.94;5098633;28;20222;-69
2023/10/20 06:56:38;;;;;;;37.10;14.87;;;;;;;12.45;100.00;92833.66;5097978;28;20199;-70
2023/10/20 06:59:04;;;;;;;35.40;15.30;;;;;;;12.39;100.00;92795.91;5098649;28;20222;-70
2023/10/20 07:01:32;;;;;;;46.87;17.83;;;;;;;12.39;100.00;92753.66;5097982;28;20203;-69
2023/10/20 07:03:59;;;;;;;36.40;15.63;;;;;;;12.22;100.00;92771.69;5098913;28;20237;-70
2023/10/20 07:06:26;;;;;;;35.80;16.13;;;;;;;12.36;100.00;92746.28;5098145;28;20195;-69
2023/10/20 07:08:53;;;;;;;45.03;17.40;;;;;;;12.27;100.00;92745.28;5097936;28;20684;-70
2023/10/20 07:11:20;;;;;;;41.33;15.90;;;;;;;12.29;100.00;92766.88;5097828;28;20222;-69
2023/10/20 07:13:47;;;;;;;39.37;16.20;;;;;;;12.37;100.00;92769.00;5099342;28;20694;-70
2023/10/20 07:16:13;;;;;;;37.83;16.63;;;;;;;12.49;100.00;92761.53;5098237;28;20206;-70
2023/10/20 07:18:40;;;;;;;40.73;15.83;;;;;;;12.53;100.00;92757.28;5097753;28;20191;-69
2023/10/20 07:21:06;;;;;;;35.53;15.17;;;;;;;12.40;100.00;92749.97;5098095;28;20672;-70
2023/10/20 07:23:34;;;;;;;35.50;15.37;;;;;;;12.61;100.00;92726.88;5098126;28;20222;-70
2023/10/20 07:26:01;;;;;;;45.23;14.77;;;;;;;12.49;100.00;92724.56;5097596;28;20207;-69
2023/10/20 07:28:27;;;;;;;35.00;15.00;;;;;;;12.53;100.00;92752.00;5098492;28;20230;-69
2023/10/20 07:30:54;;;;;;;37.37;16.03;;;;;;;12.70;100.00;92747.16;5097092;28;20677;-69
2023/10/20 07:33:22;;;;;;;32.57;15.23;;;;;;;12.77;100.00;92766.13;5097211;28;20229;-70
2023/10/20 07:35:48;;;;;;;35.30;15.47;;;;;;;13.02;100.00;92756.22;5098023;28;20195;-68
2023/10/20 07:38:15;;;;;;;34.43;17.07;;;;;;;12.93;100.00;92757.06;5097874;28;20199;-69
2023/10/20 07:40:43;;;;;;;35.20;14.67;;;;;;;13.11;100.00;92748.47;5096707;28;20226;-69
2023/10/20 07:43:11;;;;;;;37.33;14.17;;;;;;;12.74;100.00;92748.19;5097978;28;20227;-69
2023/10/20 07:45:41;;;;;;;33.07;15.30;;;;;;;13.07;100.00;92742.16;5097820;28;20195;-69
2023/10/20 07:48:08;;;;;;;34.57;14.43;;;;;;;12.95;100.00;92754.94;5095964;28;20269;-69
2023/10/20 07:50:34;;;;;;;35.43;15.37;;;;;;;12.95;100.00;92755.72;5095424;28;20284;-70
2023/10/20 07:53:02;;;;;;;36.93;14.43;;;;;;;12.81;100.00;92751.31;5096606;28;20207;-69
2023/10/20 07:55:28;;;;;;;35.57;15.40;;;;;;;12.94;100.00;92738.28;5097376;28;20219;-69
2023/10/20 07:57:56;;;;;;;35.67;15.30;;;;;;;13.20;100.00;92744.19;5097044;28;20791;-70
2023/10/20 08:00:24;;;;;;;46.70;14.90;;;;;;;13.03;100.00;92751.72;5096856;28;20214;-70
2023/10/20 08:02:50;;;;;;;34.43;16.20;;;;;;;13.14;100.00;92737.38;5096640;28;20238;-70
2023/10/20 08:05:17;;;;;;;35.87;15.13;;;;;;;13.32;100.00;92742.00;5097221;28;20694;-70
2023/10/20 08:07:43;;;;;;;32.40;15.13;;;;;;;13.44;100.00;92749.28;5096487;28;20227;-70
2023/10/20 08:10:10;;;;;;;29.33;13.80;;;;;;;13.45;100.00;92753.50;5096951;28;20207;-71
2023/10/20 08:12:36;;;;;;;34.37;14.17;;;;;;;13.47;100.00;92745.28;5096262;28;20209;-69
2023/10/20 08:15:05;;;;;;;33.07;14.87;;;;;;;13.42;100.00;92761.97;5097054;28;20242;-69
2023/10/20 08:17:33;;;;;;;32.60;14.60;;;;;;;13.33;100.00;92788.50;5096537;28;20572;-70
2023/10/20 08:19:59;;;;;;;31.23;14.10;;;;;;;13.32;100.00;92781.66;5096523;28;20199;-69
2023/10/20 08:22:26;;;;;;;33.77;14.77;;;;;;;13.65;100.00;92766.53;5097085;28;20667;-70
2023/10/20 08:24:52;;;;;;;32.87;14.97;;;;;;;13.83;100.00;92773.75;5096628;28;20579;-70
2023/10/20 08:27:19;;;;;;;31.57;14.70;;;;;;;13.92;100.00;92784.53;5095722;28;20219;-70
2023/10/20 08:29:46;;;;;;;31.97;14.17;;;;;;;14.01;100.00;92786.28;5097040;28;20195;-69
2023/10/20 08:32:14;;;;;;;32.93;14.30;;;;;;;14.16;100.00;92779.00;5097205;28;20203;-69
2023/10/20 08:34:41;;;;;;;33.17;13.47;;;;;;;14.21;100.00;92775.53;5096730;28;20229;-71
2023/10/20 08:37:07;;;;;;;34.17;14.63;;;;;;;14.33;100.00;92770.59;5095754;28;20206;-70
2023/10/20 08:39:34;;;;;;;31.10;14.18;;;;;;;14.72;100.00;92790.53;5096230;28;20353;-71
2023/10/20 08:42:02;;;;;;;36.45;14.32;;;;;;;14.82;100.00;92764.66;5096407;28;20294;-71
2023/10/20 08:44:30;;;;;;;25.40;12.93;;;;;;;14.62;100.00;92766.03;5095977;28;20223;-70
2023/10/20 08:46:57;;;;;;;33.70;14.32;;;;;;;14.50;100.00;92774.38;5095949;28;20289;-69
2023/10/20 08:49:27;;;;;;;31.03;12.83;;;;;;;14.82;100.00;92777.91;5095041;28;20199;-69
2023/10/20 08:51:56;;;;;;;29.03;13.27;;;;;;;14.81;100.00;92797.53;5096522;28;20206;-69
2023/10/20 08:54:23;;;;;;;29.37;13.13;;;;;;;14.59;100.00;92782.47;5096001;28;20883;-71
2023/10/20 08:56:50;;;;;;;26.73;12.30;;;;;;;14.76;100.00;92816.16;5095942;28;20195;-71
2023/10/20 08:59:17;;;;;;;30.23;12.07;;;;;;;14.92;100.00;92806.94;5095247;28;20199;-69
2023/10/20 09:01:44;;;;;;;25.63;11.87;;;;;;;15.10;100.00;92790.25;5096157;28;20955;-71
2023/10/20 09:04:21;;;;;;;30.75;11.63;;;;;;;15.23;100.00;92786.91;5095262;28;20226;-70
2023/10/20 09:06:50;;;;;;;28.75;12.25;;;;;;;14.91;100.00;92818.63;5095774;28;20195;-71
2023/10/20 09:09:16;;;;;;;26.65;11.05;;;;;;;15.25;100.00;92816.59;5095426;28;20234;-68
2023/10/20 09:11:43;;;;;;;29.50;12.35;;;;;;;15.36;100.00;92852.50;5096022;28;20195;-71
2023/10/20 09:14:12;;;;;;;27.63;11.30;;;;;;;15.37;100.00;92875.31;5095017;28;20807;-70
2023/10/20 09:16:39;;;;;;;32.63;13.32;;;;;;;15.24;100.00;92833.59;5094967;28;20275;-70
2023/10/20 09:19:06;;;;;;;25.43;11.43;;;;;;;15.09;100.00;92893.97;5099431;28;20532;-70
2023/10/20 09:21:32;;;;;;;29.05;12.75;;;;;;;15.09;100.00;92905.34;5100745;28;20285;-71
2023/10/20 09:24:02;;;;;;;24.50;10.82;;;;;;;14.87;100.00;92906.97;5100276;28;20219;-69
2023/10/20 09:26:31;;;;;;;30.52;11.65;;;;;;;15.11;100.00;92887.31;5100267;28;20199;-70
2023/10/20 09:28:57;;;;;;;28.60;11.93;;;;;;;15.05;100.00;92891.09;5099896;28;20222;-71
2023/10/20 09:31:25;;;;;;;33.60;12.80;;;;;;;15.33;100.00;92879.59;5099889;28;20199;-71
2023/10/20 09:33:52;;;;;;;29.10;11.15;;;;;;;15.40;100.00;92870.22;5100115;28;20320;-71
2023/10/20 09:36:19;;;;;;;25.60;12.20;;;;;;;15.34;100.00;92866.06;5100016;28;20297;-70
2023/10/20 09:38:51;;;;;;;31.85;11.70;;;;;;;15.66;100.00;92857.38;5100322;28;20222;-69
2023/10/20 09:41:22;;;;;;;30.88;12.77;;;;;;;15.53;100.00;92866.03;5099462;28;20210;-71
2023/10/20 09:43:52;;;;;;;26.83;11.50;;;;;;;15.66;100.00;92875.97;5099741;28;20333;-72
2023/10/20 09:46:32;;;;;;;24.77;10.57;;;;;;;15.84;100.00;92888.41;5100023;28;20230;-68
2023/10/20 09:49:01;;;;;;;28.70;12.07;;;;;;;15.71;100.00;92905.84;5099690;28;20226;-69
2023/10/20 09:51:28;;;;;;;23.25;10.27;;;;;;;15.57;100.00;92917.50;5099279;28;20191;-72
2023/10/20 09:53:56;;;;;;;28.00;11.35;;;;;;;15.66;100.00;92911.25;5099212;28;20246;-72
2023/10/20 09:56:24;;;;;;;26.90;10.57;;;;;;;15.90;100.00;92912.72;5099640;28;20555;-69
2023/10/20 09:58:57;;;;;;;26.83;12.32;;;;;;;15.93;100.00;92928.06;5100030;28;20206;-71
2023/10/20 10:01:24;;;;;;;25.00;11.05;;;;;;;15.60;100.00;92927.53;5098885;28;20718;-70
2023/10/20 10:04:01;;;;;;;26.75;11.60;;;;;;;15.89;100.00;92928.94;5100637;28;20306;-71
2023/10/20 10:06:35;;;;;;;22.10;10.27;;;;;;;15.99;100.00;92937.53;5099349;28;20207;-72
2023/10/20 10:09:03;;;;;;;28.90;11.45;;;;;;;15.93;100.00;92944.00;5099445;28;20598;-69
2023/10/20 10:11:34;;;;;;;28.60;11.82;;;;;;;16.07;100.00;92971.41;5099737;28;20202;-70
2023/10/20 10:14:04;;;;;;;25.33;10.90;;;;;;;15.70;100.00;92970.63;5099573;28;20234;-69
2023/10/20 10:16:31;;;;;;;26.40;10.98;;;;;;;16.03;100.00;92965.09;5099948;28;20195;-70
2023/10/20 10:19:07;;;;;;;28.98;12.10;;;;;;;16.22;100.00;92989.78;5099440;28;20206;-69
2023/10/20 10:21:38;;;;;;;25.50;10.90;;;;;;;16.21;100.00;92977.56;5099228;28;20199;-69
2023/10/20 10:24:12;;;;;;;31.70;11.60;;;;;;;16.33;100.00;92985.94;5099211;28;20231;-69
2023/10/20 10:26:46;;;;;;;30.58;12.02;;;;;;;16.23;100.00;93012.63;5099667;28;20199;-68
2023/10/20 10:29:13;;;;;;;25.88;10.45;;;;;;;15.98;100.00;92994.38;5098514;28;20230;-69
2023/10/20 10:31:40;;;;;;;22.48;9.75;;;;;;;15.84;100.00;93013.19;5098876;28;20696;-68
2023/10/20 10:34:07;;;;;;;23.63;10.80;;;;;;;16.13;100.00;93002.13;5099635;27;20645;-69
2023/10/20 10:36:43;;;;;;;24.13;11.23;;;;;;;16.42;100.00;92986.03;5098991;28;20195;-69
2023/10/20 10:39:09;;;;;;;24.08;11.30;;;;;;;16.54;100.00;93009.22;5098326;27;20214;-69
2023/10/20 10:41:36;;;;;;;18.70;8.20;;;;;;;16.42;100.00;93000.13;5099371;28;20207;-69
2023/10/20 10:44:04;;;;;;;22.63;9.93;;;;;;;16.68;100.00;92998.63;5098855;28;20230;-70
2023/10/20 10:46:36;;;;;;;14.70;7.88;;;;;;;16.72;100.00;93010.28;5098954;28;20196;-70
2023/10/20 10:49:07;;;;;;;20.80;8.98;;;;;;;16.75;100.00;93017.66;5098965;28;20234;-72
2023/10/20 10:51:33;;;;;;;14.50;6.35;;;;;;;16.31;100.00;93006.69;5098851;28;20203;-69
2023/10/20 10:54:00;;;;;;;21.30;10.35;;;;;;;16.41;100.00;93014.50;5097650;28;20230;-72
2023/10/20 10:56:27;;;;;;;21.23;10.00;;;;;;;16.52;100.00;93014.06;5098692;28;20199;-68
2023/10/20 10:58:54;;;;;;;23.98;10.13;;;;;;;16.54;100.00;93005.78;5098195;28;20665;-70
2023/10/20 11:01:22;;;;;;;23.92;12.27;;;;;;;16.28;100.00;93028.53;5097940;28;20705;-68
2023/10/20 11:03:48;;;;;;;21.10;7.82;;;;;;;16.44;100.00;93045.03;5098726;28;20226;-67
2023/10/20 11:06:15;;;;;;;19.95;9.43;;;;;;;16.72;100.00;93058.13;5098418;28;20602;-69
2023/10/20 11:08:44;;;;;;;19.33;9.23;;;;;;;16.71;100.00;93057.34;5097619;28;20219;-68
2023/10/20 11:11:11;;;;;;;20.75;10.18;;;;;;;16.75;100.00;93078.81;5098512;28;20204;-69
2023/10/20 11:13:40;;;;;;;17.05;7.93;;;;;;;17.24;100.00;93078.00;5099418;28;20231;-68
2023/10/20 11:16:07;;;;;;;20.83;9.93;;;;;;;16.84;100.00;93104.47;5098064;28;20203;-68
2023/10/20 11:18:35;;;;;;;19.63;9.73;;;;;;;17.16;100.00;93096.50;5097466;28;20191;-68
2023/10/20 11:21:01;;;;;;;25.63;9.73;;;;;;;17.17;100.00;93104.16;5098407;28;20234;-71
2023/10/20 11:23:29;;;;;;;21.38;9.50;;;;;;;17.30;100.00;93095.47;5098128;28;20295;-69
2023/10/20 11:25:57;;;;;;;19.15;8.45;;;;;;;17.14;100.00;93106.63;5097179;28;20203;-70
2023/10/20 11:28:23;;;;;;;18.33;8.45;;;;;;;17.08;100.00;93089.16;5097564;28;20230;-69
2023/10/20 11:30:50;;;;;;;17.75;8.02;;;;;;;17.14;100.00;93082.66;5097770;28;20207;-69
2023/10/20 11:33:17;;;;;;;14.82;8.00;;;;;;;17.14;100.00;93074.69;5097792;28;20225;-71